sensor_id;sensor_type;location;lat;lon;timestamp;pressure;altitude;pressure_sealevel;temperature;humidity
6343;BME280;3204;42.698;23.298;2023-11-21T00:02:11;94735.13;;;5.68;88.97
6343;BME280;3204;42.698;23.298;2023-11-21T00:04:37;94737.03;;;5.68;89.28
6343;BME280;3204;42.698;23.298;2023-11-21T00:07:03;94738.09;;;5.67;89.26
6343;BME280;3204;42.698;23.298;2023-11-21T00:09:28;94740.00;;;5.66;89.77
6343;BME280;3204;42.698;23.298;2023-11-21T00:11:53;94730.56;;;5.69;89.63
6343;BME280;3204;42.698;23.298;2023-11-21T00:14:19;94732.16;;;5.70;89.73
6343;BME280;3204;42.698;23.298;2023-11-21T00:16:44;94734.84;;;5.70;89.14
6343;BME280;3204;42.698;23.298;2023-11-21T00:19:11;94745.38;;;5.66;89.86
6343;BME280;3204;42.698;23.298;2023-11-21T00:21:36;94732.81;;;5.57;89.50
6343;BME280;3204;42.698;23.298;2023-11-21T00:24:01;94743.00;;;5.60;89.78
6343;BME280;3204;42.698;23.298;2023-11-21T00:26:27;94739.22;;;5.61;89.78
6343;BME280;3204;42.698;23.298;2023-11-21T00:28:53;94731.44;;;5.59;90.14
6343;BME280;3204;42.698;23.298;2023-11-21T00:31:18;94729.78;;;5.63;90.27
6343;BME280;3204;42.698;23.298;2023-11-21T00:33:43;94731.69;;;5.63;89.89
6343;BME280;3204;42.698;23.298;2023-11-21T00:36:09;94728.47;;;5.61;90.13
6343;BME280;3204;42.698;23.298;2023-11-21T00:38:37;94730.38;;;5.60;90.03
6343;BME280;3204;42.698;23.298;2023-11-21T00:41:05;94723.13;;;5.56;90.31
6343;BME280;3204;42.698;23.298;2023-11-21T00:43:31;94728.69;;;5.64;90.26
6343;BME280;3204;42.698;23.298;2023-11-21T00:45:58;94726.16;;;5.78;89.99
6343;BME280;3204;42.698;23.298;2023-11-21T00:48:23;94731.81;;;5.76;89.95
6343;BME280;3204;42.698;23.298;2023-11-21T00:50:49;94732.16;;;5.70;89.75
6343;BME280;3204;42.698;23.298;2023-11-21T00:53:15;94729.50;;;5.65;89.64
6343;BME280;3204;42.698;23.298;2023-11-21T00:55:41;94724.47;;;5.58;89.95
6343;BME280;3204;42.698;23.298;2023-11-21T00:58:06;94722.34;;;5.55;90.05
6343;BME280;3204;42.698;23.298;2023-11-21T01:00:33;94712.66;;;5.54;90.19
6343;BME280;3204;42.698;23.298;2023-11-21T01:02:59;94718.88;;;5.50;90.24
6343;BME280;3204;42.698;23.298;2023-11-21T01:05:24;94713.56;;;5.45;89.89
6343;BME280;3204;42.698;23.298;2023-11-21T01:07:50;94721.91;;;5.43;90.15
6343;BME280;3204;42.698;23.298;2023-11-21T01:10:15;94718.13;;;5.44;90.04
6343;BME280;3204;42.698;23.298;2023-11-21T01:12:42;94707.13;;;5.41;89.89
6343;BME280;3204;42.698;23.298;2023-11-21T01:15:08;94705.00;;;5.38;90.69
6343;BME280;3204;42.698;23.298;2023-11-21T01:17:34;94713.88;;;5.38;90.24
6343;BME280;3204;42.698;23.298;2023-11-21T01:20:00;94714.69;;;5.39;90.29
6343;BME280;3204;42.698;23.298;2023-11-21T01:22:26;94710.44;;;5.33;90.13
6343;BME280;3204;42.698;23.298;2023-11-21T01:24:53;94718.81;;;5.31;90.18
6343;BME280;3204;42.698;23.298;2023-11-21T01:27:19;94720.94;;;5.29;89.83
6343;BME280;3204;42.698;23.298;2023-11-21T01:29:44;94713.41;;;5.31;90.04
6343;BME280;3204;42.698;23.298;2023-11-21T01:32:10;94707.22;;;5.31;89.74
6343;BME280;3204;42.698;23.298;2023-11-21T01:34:35;94704.88;;;5.24;90.29
6343;BME280;3204;42.698;23.298;2023-11-21T01:37:01;94722.91;;;5.19;90.53
6343;BME280;3204;42.698;23.298;2023-11-21T01:39:28;94718.84;;;5.21;90.41
6343;BME280;3204;42.698;23.298;2023-11-21T01:41:53;94714.56;;;5.20;89.51
6343;BME280;3204;42.698;23.298;2023-11-21T01:44:18;94716.47;;;5.20;90.23
6343;BME280;3204;42.698;23.298;2023-11-21T01:46:45;94721.13;;;5.09;90.85
6343;BME280;3204;42.698;23.298;2023-11-21T01:49:12;94707.56;;;5.24;90.93
6343;BME280;3204;42.698;23.298;2023-11-21T01:51:39;94704.09;;;5.19;90.40
6343;BME280;3204;42.698;23.298;2023-11-21T01:54:06;94707.69;;;5.09;90.90
6343;BME280;3204;42.698;23.298;2023-11-21T01:56:32;94711.97;;;5.10;90.86
6343;BME280;3204;42.698;23.298;2023-11-21T01:58:58;94714.19;;;5.03;91.35
6343;BME280;3204;42.698;23.298;2023-11-21T02:01:23;94708.03;;;4.98;90.88
6343;BME280;3204;42.698;23.298;2023-11-21T02:03:48;94712.31;;;4.99;90.85
6343;BME280;3204;42.698;23.298;2023-11-21T02:06:14;94707.47;;;5.01;90.50
6343;BME280;3204;42.698;23.298;2023-11-21T02:08:40;94715.81;;;4.99;90.53
6343;BME280;3204;42.698;23.298;2023-11-21T02:11:07;94711.53;;;4.98;90.57
6343;BME280;3204;42.698;23.298;2023-11-21T02:13:34;94706.97;;;4.94;90.44
6343;BME280;3204;42.698;23.298;2023-11-21T02:16:00;94708.88;;;4.88;90.62
6343;BME280;3204;42.698;23.298;2023-11-21T02:18:25;94709.69;;;4.89;90.45
6343;BME280;3204;42.698;23.298;2023-11-21T02:20:51;94713.47;;;4.88;90.48
6343;BME280;3204;42.698;23.298;2023-11-21T02:23:16;94710.81;;;4.83;90.93
6343;BME280;3204;42.698;23.298;2023-11-21T02:25:43;94706.25;;;4.83;90.93
6343;BME280;3204;42.698;23.298;2023-11-21T02:28:08;94703.03;;;4.81;90.96
6343;BME280;3204;42.698;23.298;2023-11-21T02:30:34;94695.78;;;4.82;90.99
6343;BME280;3204;42.698;23.298;2023-11-21T02:33:02;94698.19;;;4.83;90.65
6343;BME280;3204;42.698;23.298;2023-11-21T02:35:28;94705.50;;;4.78;90.73
6343;BME280;3204;42.698;23.298;2023-11-21T02:37:54;94703.31;;;4.80;90.25
6343;BME280;3204;42.698;23.298;2023-11-21T02:40:19;94697.44;;;4.78;90.81
6343;BME280;3204;42.698;23.298;2023-11-21T02:42:49;94708.75;;;4.70;90.81
6343;BME280;3204;42.698;23.298;2023-11-21T02:45:17;94704.47;;;4.69;91.18
6343;BME280;3204;42.698;23.298;2023-11-21T02:47:43;94698.56;;;4.67;91.31
6343;BME280;3204;42.698;23.298;2023-11-21T02:50:08;94696.13;;;4.70;91.23
6343;BME280;3204;42.698;23.298;2023-11-21T02:52:35;94697.47;;;4.73;90.93
6343;BME280;3204;42.698;23.298;2023-11-21T02:55:01;94704.44;;;4.74;91.04
6343;BME280;3204;42.698;23.298;2023-11-21T02:57:27;94696.91;;;4.71;90.98
6343;BME280;3204;42.698;23.298;2023-11-21T02:59:52;94696.41;;;4.69;90.77
6343;BME280;3204;42.698;23.298;2023-11-21T03:02:18;94701.50;;;4.70;90.91
6343;BME280;3204;42.698;23.298;2023-11-21T03:04:43;94694.78;;;4.73;90.76
6343;BME280;3204;42.698;23.298;2023-11-21T03:07:09;94694.22;;;4.71;90.83
6343;BME280;3204;42.698;23.298;2023-11-21T03:09:35;94694.28;;;4.66;90.86
6343;BME280;3204;42.698;23.298;2023-11-21T03:12:01;94698.34;;;4.58;91.64
6343;BME280;3204;42.698;23.298;2023-11-21T03:14:26;94699.50;;;4.47;92.48
6343;BME280;3204;42.698;23.298;2023-11-21T03:16:51;94691.66;;;4.56;92.39
6343;BME280;3204;42.698;23.298;2023-11-21T03:19:17;94703.47;;;4.55;92.22
6343;BME280;3204;42.698;23.298;2023-11-21T03:21:42;94707.72;;;4.61;91.94
6343;BME280;3204;42.698;23.298;2023-11-21T03:24:08;94709.59;;;4.65;91.75
6343;BME280;3204;42.698;23.298;2023-11-21T03:26:33;94710.66;;;4.64;91.38
6343;BME280;3204;42.698;23.298;2023-11-21T03:28:59;94714.69;;;4.62;91.19
6343;BME280;3204;42.698;23.298;2023-11-21T03:31:25;94709.91;;;4.59;90.97
6343;BME280;3204;42.698;23.298;2023-11-21T03:33:50;94709.09;;;4.58;91.27
6343;BME280;3204;42.698;23.298;2023-11-21T03:36:15;94708.28;;;4.63;91.17
6343;BME280;3204;42.698;23.298;2023-11-21T03:38:41;94708.28;;;4.63;91.11
6343;BME280;3204;42.698;23.298;2023-11-21T03:41:07;94703.41;;;4.65;90.96
6343;BME280;3204;42.698;23.298;2023-11-21T03:43:35;94703.97;;;4.62;90.97
6343;BME280;3204;42.698;23.298;2023-11-21T03:46:01;94692.16;;;4.63;91.51
6343;BME280;3204;42.698;23.298;2023-11-21T03:48:27;94692.41;;;4.66;91.13
6343;BME280;3204;42.698;23.298;2023-11-21T03:50:52;94690.25;;;4.63;91.46
6343;BME280;3204;42.698;23.298;2023-11-21T03:53:17;94680.09;;;4.60;92.05
6343;BME280;3204;42.698;23.298;2023-11-21T03:55:43;94677.91;;;4.62;92.19
6343;BME280;3204;42.698;23.298;2023-11-21T03:58:08;94672.25;;;4.69;92.08
6343;BME280;3204;42.698;23.298;2023-11-21T04:00:33;94677.56;;;4.74;92.26
6343;BME280;3204;42.698;23.298;2023-11-21T04:02:59;94684.31;;;4.71;91.38
6343;BME280;3204;42.698;23.298;2023-11-21T04:05:24;94675.16;;;4.72;91.49
6343;BME280;3204;42.698;23.298;2023-11-21T04:07:50;94668.44;;;4.75;91.45
6343;BME280;3204;42.698;23.298;2023-11-21T04:10:18;94665.78;;;4.70;91.61
6343;BME280;3204;42.698;23.298;2023-11-21T04:12:44;94670.09;;;4.66;91.66
6343;BME280;3204;42.698;23.298;2023-11-21T04:15:10;94675.19;;;4.67;91.61
6343;BME280;3204;42.698;23.298;2023-11-21T04:17:38;94672.78;;;4.66;92.12
6343;BME280;3204;42.698;23.298;2023-11-21T04:20:05;94675.47;;;4.66;91.75
6343;BME280;3204;42.698;23.298;2023-11-21T04:22:36;94673.88;;;4.65;91.88
6343;BME280;3204;42.698;23.298;2023-11-21T04:25:01;94672.50;;;4.67;91.26
6343;BME280;3204;42.698;23.298;2023-11-21T04:27:27;94669.31;;;4.65;91.66
6343;BME280;3204;42.698;23.298;2023-11-21T04:29:52;94677.91;;;4.62;91.76
6343;BME280;3204;42.698;23.298;2023-11-21T04:32:18;94672.19;;;4.74;91.32
6343;BME280;3204;42.698;23.298;2023-11-21T04:34:43;94672.69;;;4.81;91.94
6343;BME280;3204;42.698;23.298;2023-11-21T04:37:08;94673.22;;;4.83;92.43
6343;BME280;3204;42.698;23.298;2023-11-21T04:39:35;94677.97;;;4.91;91.47
6343;BME280;3204;42.698;23.298;2023-11-21T04:42:01;94680.06;;;4.99;91.49
6343;BME280;3204;42.698;23.298;2023-11-21T04:44:26;94685.56;;;4.84;91.23
6343;BME280;3204;42.698;23.298;2023-11-21T04:46:52;94678.94;;;4.71;92.38
6343;BME280;3204;42.698;23.298;2023-11-21T04:49:17;94671.66;;;4.72;92.33
6343;BME280;3204;42.698;23.298;2023-11-21T04:51:42;94679.72;;;4.77;92.19
6343;BME280;3204;42.698;23.298;2023-11-21T04:54:08;94682.91;;;4.79;92.38
6343;BME280;3204;42.698;23.298;2023-11-21T04:56:34;94692.06;;;4.78;92.34
6343;BME280;3204;42.698;23.298;2023-11-21T04:58:59;94684.50;;;4.80;91.64
6343;BME280;3204;42.698;23.298;2023-11-21T05:01:25;94684.00;;;4.78;91.80
6343;BME280;3204;42.698;23.298;2023-11-21T05:03:50;94687.66;;;4.92;91.60
6343;BME280;3204;42.698;23.298;2023-11-21T05:06:16;94687.16;;;4.85;91.21
6343;BME280;3204;42.698;23.298;2023-11-21T05:08:41;94693.09;;;4.82;91.63
6343;BME280;3204;42.698;23.298;2023-11-21T05:11:07;94677.31;;;4.75;91.75
6343;BME280;3204;42.698;23.298;2023-11-21T05:13:35;94667.38;;;4.71;92.00
6343;BME280;3204;42.698;23.298;2023-11-21T05:16:01;94672.72;;;4.76;92.22
6343;BME280;3204;42.698;23.298;2023-11-21T05:18:29;94674.53;;;4.85;91.79
6343;BME280;3204;42.698;23.298;2023-11-21T05:20:55;94673.22;;;4.83;91.88
6343;BME280;3204;42.698;23.298;2023-11-21T05:23:21;94675.91;;;4.83;91.98
6343;BME280;3204;42.698;23.298;2023-11-21T05:25:46;94670.56;;;4.78;91.42
6343;BME280;3204;42.698;23.298;2023-11-21T05:28:12;94684.00;;;4.78;91.69
6343;BME280;3204;42.698;23.298;2023-11-21T05:30:37;94689.09;;;4.79;91.64
6343;BME280;3204;42.698;23.298;2023-11-21T05:33:05;94699.19;;;4.92;92.08
6343;BME280;3204;42.698;23.298;2023-11-21T05:35:30;94694.09;;;4.96;91.64
6343;BME280;3204;42.698;23.298;2023-11-21T05:37:56;94691.16;;;4.87;91.50
6343;BME280;3204;42.698;23.298;2023-11-21T05:40:21;94687.69;;;4.87;91.91
6343;BME280;3204;42.698;23.298;2023-11-21T05:42:47;94687.66;;;4.92;91.45
6343;BME280;3204;42.698;23.298;2023-11-21T05:45:14;94702.41;;;4.94;91.11
6343;BME280;3204;42.698;23.298;2023-11-21T05:47:42;94688.53;;;5.16;90.67
6343;BME280;3204;42.698;23.298;2023-11-21T05:50:08;94687.25;;;5.08;91.18
6343;BME280;3204;42.698;23.298;2023-11-21T05:52:43;94680.34;;;4.97;91.03
6343;BME280;3204;42.698;23.298;2023-11-21T05:55:09;94677.84;;;5.11;89.99
6343;BME280;3204;42.698;23.298;2023-11-21T05:57:38;94687.09;;;4.95;90.94
6343;BME280;3204;42.698;23.298;2023-11-21T06:00:14;94680.47;;;5.16;90.36
6343;BME280;3204;42.698;23.298;2023-11-21T06:02:50;94692.97;;;5.02;90.61
6343;BME280;3204;42.698;23.298;2023-11-21T06:05:17;94690.34;;;5.54;99.21
6343;BME280;3204;42.698;23.298;2023-11-21T06:07:43;94692.25;;;6.05;91.88
6343;BME280;3204;42.698;23.298;2023-11-21T06:10:10;94693.13;;;6.01;88.32
6343;BME280;3204;42.698;23.298;2023-11-21T06:12:38;94701.78;;;5.64;88.94
6343;BME280;3204;42.698;23.298;2023-11-21T06:15:05;94702.88;;;5.63;89.36
6343;BME280;3204;42.698;23.298;2023-11-21T06:17:36;94699.03;;;5.46;89.23
6343;BME280;3204;42.698;23.298;2023-11-21T06:20:03;94698.63;;;5.29;90.61
6343;BME280;3204;42.698;23.298;2023-11-21T06:22:37;94701.81;;;5.36;90.16
6343;BME280;3204;42.698;23.298;2023-11-21T06:25:03;94696.28;;;5.22;89.67
6343;BME280;3204;42.698;23.298;2023-11-21T06:27:37;94707.94;;;5.08;90.44
6343;BME280;3204;42.698;23.298;2023-11-21T06:30:04;94714.66;;;5.10;90.32
6343;BME280;3204;42.698;23.298;2023-11-21T06:32:30;94717.97;;;4.97;90.87
6343;BME280;3204;42.698;23.298;2023-11-21T06:34:58;94717.22;;;4.92;90.69
6343;BME280;3204;42.698;23.298;2023-11-21T06:37:27;94713.44;;;4.93;90.78
6343;BME280;3204;42.698;23.298;2023-11-21T06:39:53;94722.03;;;4.90;91.04
6343;BME280;3204;42.698;23.298;2023-11-21T06:42:19;94726.94;;;4.83;91.41
6343;BME280;3204;42.698;23.298;2023-11-21T06:44:47;94735.00;;;4.83;91.82
6343;BME280;3204;42.698;23.298;2023-11-21T06:47:13;94730.63;;;4.97;90.80
6343;BME280;3204;42.698;23.298;2023-11-21T06:49:39;94728.72;;;4.97;90.88
6343;BME280;3204;42.698;23.298;2023-11-21T06:52:05;94726.84;;;4.98;90.87
6343;BME280;3204;42.698;23.298;2023-11-21T06:54:33;94725.44;;;5.05;90.82
6343;BME280;3204;42.698;23.298;2023-11-21T06:56:59;94723.03;;;5.04;91.28
6343;BME280;3204;42.698;23.298;2023-11-21T06:59:24;94725.13;;;5.12;91.04
6343;BME280;3204;42.698;23.298;2023-11-21T07:01:50;94722.66;;;5.15;91.35
6343;BME280;3204;42.698;23.298;2023-11-21T07:04:15;94737.91;;;5.30;91.54
6343;BME280;3204;42.698;23.298;2023-11-21T07:06:41;94728.38;;;5.42;91.46
6343;BME280;3204;42.698;23.298;2023-11-21T07:09:06;94721.63;;;5.45;90.83
6343;BME280;3204;42.698;23.298;2023-11-21T07:11:34;94718.03;;;5.54;90.46
6343;BME280;3204;42.698;23.298;2023-11-21T07:13:59;94713.88;;;5.67;90.46
6343;BME280;3204;42.698;23.298;2023-11-21T07:16:27;94720.25;;;5.76;90.26
6343;BME280;3204;42.698;23.298;2023-11-21T07:18:53;94717.00;;;5.79;89.63
6343;BME280;3204;42.698;23.298;2023-11-21T07:21:20;94710.00;;;5.83;90.30
6343;BME280;3204;42.698;23.298;2023-11-21T07:23:46;94714.00;;;5.85;89.82
6343;BME280;3204;42.698;23.298;2023-11-21T07:26:11;94718.50;;;5.90;89.49
6343;BME280;3204;42.698;23.298;2023-11-21T07:28:37;94720.38;;;5.94;89.60
6343;BME280;3204;42.698;23.298;2023-11-21T07:31:03;94720.47;;;6.08;89.73
6343;BME280;3204;42.698;23.298;2023-11-21T07:33:28;94728.44;;;6.18;89.19
6343;BME280;3204;42.698;23.298;2023-11-21T07:35:54;94720.19;;;6.33;88.35
6343;BME280;3204;42.698;23.298;2023-11-21T07:38:19;94722.88;;;6.33;88.46
6343;BME280;3204;42.698;23.298;2023-11-21T07:40:44;94716.59;;;6.61;87.12
6343;BME280;3204;42.698;23.298;2023-11-21T07:43:10;94712.94;;;6.52;87.56
6343;BME280;3204;42.698;23.298;2023-11-21T07:45:36;94716.72;;;6.51;87.95
6343;BME280;3204;42.698;23.298;2023-11-21T07:48:01;94717.53;;;6.51;88.18
6343;BME280;3204;42.698;23.298;2023-11-21T07:50:28;94703.28;;;6.69;87.69
6343;BME280;3204;42.698;23.298;2023-11-21T07:52:54;94715.06;;;6.73;87.84
6343;BME280;3204;42.698;23.298;2023-11-21T07:55:20;94707.16;;;6.82;87.39
6343;BME280;3204;42.698;23.298;2023-11-21T07:57:45;94701.09;;;6.90;86.84
6343;BME280;3204;42.698;23.298;2023-11-21T08:00:11;94702.78;;;7.04;85.20
6343;BME280;3204;42.698;23.298;2023-11-21T08:02:40;94696.88;;;7.02;86.26
6343;BME280;3204;42.698;23.298;2023-11-21T08:05:11;94689.94;;;7.15;85.55
6343;BME280;3204;42.698;23.298;2023-11-21T08:07:37;94696.44;;;7.14;84.93
6343;BME280;3204;42.698;23.298;2023-11-21T08:10:02;94693.78;;;7.09;86.22
6343;BME280;3204;42.698;23.298;2023-11-21T08:12:30;94689.88;;;7.20;85.57
6343;BME280;3204;42.698;23.298;2023-11-21T08:14:55;94701.75;;;7.19;85.03
6343;BME280;3204;42.698;23.298;2023-11-21T08:17:21;94696.97;;;7.29;85.16
6343;BME280;3204;42.698;23.298;2023-11-21T08:19:46;94699.00;;;7.37;85.86
6343;BME280;3204;42.698;23.298;2023-11-21T08:22:15;94693.66;;;7.51;84.73
6343;BME280;3204;42.698;23.298;2023-11-21T08:24:42;94690.19;;;7.64;84.87
6343;BME280;3204;42.698;23.298;2023-11-21T08:27:07;94701.91;;;7.73;84.04
6343;BME280;3204;42.698;23.298;2023-11-21T08:29:33;94690.94;;;7.83;83.31
6343;BME280;3204;42.698;23.298;2023-11-21T08:31:59;94703.31;;;7.84;82.60
6343;BME280;3204;42.698;23.298;2023-11-21T08:34:25;94687.34;;;7.87;83.55
6343;BME280;3204;42.698;23.298;2023-11-21T08:36:50;94690.34;;;7.99;82.29
6343;BME280;3204;42.698;23.298;2023-11-21T08:39:16;94692.13;;;8.04;82.08
6343;BME280;3204;42.698;23.298;2023-11-21T08:41:44;94691.56;;;8.07;82.45
6343;BME280;3204;42.698;23.298;2023-11-21T08:44:09;94698.16;;;8.14;82.48
6343;BME280;3204;42.698;23.298;2023-11-21T08:46:36;94689.69;;;8.34;80.78
6343;BME280;3204;42.698;23.298;2023-11-21T08:49:02;94686.97;;;8.34;79.57
6343;BME280;3204;42.698;23.298;2023-11-21T08:51:27;94688.16;;;8.15;79.94
6343;BME280;3204;42.698;23.298;2023-11-21T08:53:53;94679.44;;;8.04;81.02
6343;BME280;3204;42.698;23.298;2023-11-21T08:56:18;94689.38;;;8.09;81.49
6343;BME280;3204;42.698;23.298;2023-11-21T08:58:45;94665.69;;;8.33;80.63
6343;BME280;3204;42.698;23.298;2023-11-21T09:01:12;94665.59;;;8.38;80.42
6343;BME280;3204;42.698;23.298;2023-11-21T09:03:37;94650.97;;;8.39;79.79
6343;BME280;3204;42.698;23.298;2023-11-21T09:06:03;94652.66;;;8.35;80.94
6343;BME280;3204;42.698;23.298;2023-11-21T09:08:29;94638.63;;;8.46;79.96
6343;BME280;3204;42.698;23.298;2023-11-21T09:10:55;94635.75;;;8.16;80.24
6343;BME280;3204;42.698;23.298;2023-11-21T09:13:20;94629.44;;;8.20;80.78
6343;BME280;3204;42.698;23.298;2023-11-21T09:15:46;94625.88;;;8.25;80.77
6343;BME280;3204;42.698;23.298;2023-11-21T09:18:14;94619.16;;;8.22;80.62
6343;BME280;3204;42.698;23.298;2023-11-21T09:20:43;94616.25;;;8.19;81.10
6343;BME280;3204;42.698;23.298;2023-11-21T09:23:11;94615.06;;;8.25;80.30
6343;BME280;3204;42.698;23.298;2023-11-21T09:25:37;94611.13;;;8.44;79.76
6343;BME280;3204;42.698;23.298;2023-11-21T09:28:03;94608.09;;;8.46;79.90
6343;BME280;3204;42.698;23.298;2023-11-21T09:30:33;94591.22;;;8.40;79.98
6343;BME280;3204;42.698;23.298;2023-11-21T09:32:58;94565.41;;;8.34;80.06
6343;BME280;3204;42.698;23.298;2023-11-21T09:35:24;94573.09;;;8.41;80.58
6343;BME280;3204;42.698;23.298;2023-11-21T09:37:49;94574.72;;;8.64;80.55
6343;BME280;3204;42.698;23.298;2023-11-21T09:40:20;94557.78;;;8.72;79.83
6343;BME280;3204;42.698;23.298;2023-11-21T09:45:25;94557.47;;;8.73;79.78
6343;BME280;3204;42.698;23.298;2023-11-21T09:47:52;94550.78;;;8.71;79.04
6343;BME280;3204;42.698;23.298;2023-11-21T09:50:20;94541.28;;;8.60;79.13
6343;BME280;3204;42.698;23.298;2023-11-21T09:53:20;94529.75;;;8.68;80.09
6343;BME280;3204;42.698;23.298;2023-11-21T09:55:48;94510.88;;;8.76;80.02
6343;BME280;3204;42.698;23.298;2023-11-21T09:58:14;94514.03;;;8.92;79.49
6343;BME280;3204;42.698;23.298;2023-11-21T10:00:48;94526.69;;;9.05;79.76
6343;BME280;3204;42.698;23.298;2023-11-21T10:03:14;94526.19;;;9.33;78.91
6343;BME280;3204;42.698;23.298;2023-11-21T10:05:42;94516.84;;;9.39;77.37
6343;BME280;3204;42.698;23.298;2023-11-21T10:08:08;94515.88;;;9.35;77.95
6343;BME280;3204;42.698;23.298;2023-11-21T10:10:38;94505.50;;;9.37;77.89
6343;BME280;3204;42.698;23.298;2023-11-21T10:13:11;94514.31;;;9.43;78.05
6343;BME280;3204;42.698;23.298;2023-11-21T10:15:37;94510.19;;;9.54;77.49
6343;BME280;3204;42.698;23.298;2023-11-21T10:18:04;94501.78;;;9.64;77.25
6343;BME280;3204;42.698;23.298;2023-11-21T10:20:34;94491.91;;;9.59;76.81
6343;BME280;3204;42.698;23.298;2023-11-21T10:23:00;94486.97;;;9.53;76.45
6343;BME280;3204;42.698;23.298;2023-11-21T10:25:30;94491.28;;;9.62;76.35
6343;BME280;3204;42.698;23.298;2023-11-21T10:28:00;94487.47;;;9.63;76.34
6343;BME280;3204;42.698;23.298;2023-11-21T10:30:37;94489.94;;;9.43;76.48
6343;BME280;3204;42.698;23.298;2023-11-21T10:33:04;94487.72;;;9.45;77.16
6343;BME280;3204;42.698;23.298;2023-11-21T10:35:46;94487.13;;;9.65;76.66
6343;BME280;3204;42.698;23.298;2023-11-21T10:38:14;94476.31;;;9.65;76.49
6343;BME280;3204;42.698;23.298;2023-11-21T10:40:43;94474.00;;;9.89;76.21
6343;BME280;3204;42.698;23.298;2023-11-21T10:43:10;94464.91;;;9.93;75.22
6343;BME280;3204;42.698;23.298;2023-11-21T10:45:39;94473.69;;;9.99;74.72
6343;BME280;3204;42.698;23.298;2023-11-21T10:48:06;94477.34;;;9.94;75.52
6343;BME280;3204;42.698;23.298;2023-11-21T10:50:34;94471.47;;;10.01;75.25
6343;BME280;3204;42.698;23.298;2023-11-21T10:53:02;94461.63;;;10.13;73.87
6343;BME280;3204;42.698;23.298;2023-11-21T10:55:29;94455.59;;;10.08;74.05
6343;BME280;3204;42.698;23.298;2023-11-21T10:57:58;94448.50;;;9.90;73.87
6343;BME280;3204;42.698;23.298;2023-11-21T11:00:26;94457.47;;;10.07;72.90
6343;BME280;3204;42.698;23.298;2023-11-21T11:02:53;94449.16;;;10.04;72.96
6343;BME280;3204;42.698;23.298;2023-11-21T11:05:20;94442.03;;;10.16;72.51
6343;BME280;3204;42.698;23.298;2023-11-21T11:07:50;94439.56;;;9.98;73.11
6343;BME280;3204;42.698;23.298;2023-11-21T11:10:20;94439.56;;;9.98;73.08
6343;BME280;3204;42.698;23.298;2023-11-21T11:12:48;94437.09;;;10.10;72.94
6343;BME280;3204;42.698;23.298;2023-11-21T11:15:15;94442.50;;;10.10;72.95
6343;BME280;3204;42.698;23.298;2023-11-21T11:17:41;94431.94;;;10.00;72.28
6343;BME280;3204;42.698;23.298;2023-11-21T11:20:12;94425.13;;;10.11;72.92
6343;BME280;3204;42.698;23.298;2023-11-21T11:22:46;94417.94;;;10.23;72.48
6343;BME280;3204;42.698;23.298;2023-11-21T11:28:20;94409.66;;;10.37;72.86
6343;BME280;3204;42.698;23.298;2023-11-21T11:33:47;94398.16;;;10.40;72.19
6343;BME280;3204;42.698;23.298;2023-11-21T11:36:20;94398.50;;;10.30;73.05
6343;BME280;3204;42.698;23.298;2023-11-21T11:38:47;94405.69;;;10.34;73.16
6343;BME280;3204;42.698;23.298;2023-11-21T11:41:30;94397.53;;;10.43;73.06
6343;BME280;3204;42.698;23.298;2023-11-21T11:43:59;94419.69;;;10.53;72.53
6343;BME280;3204;42.698;23.298;2023-11-21T11:46:42;94421.13;;;10.51;73.01
6343;BME280;3204;42.698;23.298;2023-11-21T11:49:07;94425.09;;;10.62;72.78
6343;BME280;3204;42.698;23.298;2023-11-21T11:51:33;94429.41;;;10.63;73.09
6343;BME280;3204;42.698;23.298;2023-11-21T11:54:01;94418.03;;;10.86;72.81
6343;BME280;3204;42.698;23.298;2023-11-21T11:56:31;94419.91;;;10.94;73.12
6343;BME280;3204;42.698;23.298;2023-11-21T11:59:02;94413.09;;;10.80;73.93
6343;BME280;3204;42.698;23.298;2023-11-21T12:01:34;94397.16;;;10.78;73.75
6343;BME280;3204;42.698;23.298;2023-11-21T12:06:51;94415.72;;;10.51;75.47
6343;BME280;3204;42.698;23.298;2023-11-21T12:09:20;94415.88;;;10.54;75.03
6343;BME280;3204;42.698;23.298;2023-11-21T12:11:48;94421.13;;;10.42;76.04
6343;BME280;3204;42.698;23.298;2023-11-21T12:14:14;94416.19;;;10.27;77.47
6343;BME280;3204;42.698;23.298;2023-11-21T12:16:41;94412.38;;;10.20;78.19
6343;BME280;3204;42.698;23.298;2023-11-21T12:19:08;94406.66;;;10.13;79.61
6343;BME280;3204;42.698;23.298;2023-11-21T12:21:33;94408.22;;;10.05;81.08
6343;BME280;3204;42.698;23.298;2023-11-21T12:23:59;94404.19;;;10.03;80.46
6343;BME280;3204;42.698;23.298;2023-11-21T12:26:26;94405.16;;;9.98;81.63
6343;BME280;3204;42.698;23.298;2023-11-21T12:28:53;94403.91;;;9.96;81.47
6343;BME280;3204;42.698;23.298;2023-11-21T12:31:25;94408.50;;;9.78;82.66
6343;BME280;3204;42.698;23.298;2023-11-21T12:33:50;94410.69;;;9.59;84.22
6343;BME280;3204;42.698;23.298;2023-11-21T12:36:16;94404.63;;;9.62;84.46
6343;BME280;3204;42.698;23.298;2023-11-21T12:38:42;94402.28;;;9.61;85.55
6343;BME280;3204;42.698;23.298;2023-11-21T12:41:09;94403.03;;;9.61;84.34
6343;BME280;3204;42.698;23.298;2023-11-21T12:43:35;94395.91;;;9.74;84.74
6343;BME280;3204;42.698;23.298;2023-11-21T12:46:07;94385.56;;;9.84;83.99
6343;BME280;3204;42.698;23.298;2023-11-21T12:48:37;94385.72;;;9.71;84.65
6343;BME280;3204;42.698;23.298;2023-11-21T12:51:05;94378.38;;;9.63;84.13
6343;BME280;3204;42.698;23.298;2023-11-21T12:53:32;94378.84;;;9.65;84.93
6343;BME280;3204;42.698;23.298;2023-11-21T12:56:05;94376.31;;;9.77;83.57
6343;BME280;3204;42.698;23.298;2023-11-21T12:58:31;94368.00;;;9.65;84.08
6343;BME280;3204;42.698;23.298;2023-11-21T13:00:59;94365.81;;;9.58;82.14
6343;BME280;3204;42.698;23.298;2023-11-21T13:03:25;94360.38;;;9.58;83.24
6343;BME280;3204;42.698;23.298;2023-11-21T13:05:51;94351.16;;;9.59;83.37
6343;BME280;3204;42.698;23.298;2023-11-21T13:08:22;94355.63;;;9.72;83.53
6343;BME280;3204;42.698;23.298;2023-11-21T13:10:50;94369.63;;;9.83;82.71
6343;BME280;3204;42.698;23.298;2023-11-21T13:13:16;94362.31;;;9.92;83.11
6343;BME280;3204;42.698;23.298;2023-11-21T13:16:02;94358.94;;;9.78;83.37
6343;BME280;3204;42.698;23.298;2023-11-21T13:18:31;94359.25;;;9.68;83.10
6343;BME280;3204;42.698;23.298;2023-11-21T13:20:58;94360.84;;;9.69;83.72
6343;BME280;3204;42.698;23.298;2023-11-21T13:23:24;94359.59;;;9.75;83.92
6343;BME280;3204;42.698;23.298;2023-11-21T13:25:51;94355.94;;;9.79;85.03
6343;BME280;3204;42.698;23.298;2023-11-21T13:28:16;94356.59;;;9.85;84.34
6343;BME280;3204;42.698;23.298;2023-11-21T13:30:43;94347.34;;;9.86;83.79